Data for 01/30/2013

Time Sea-Level Adjusted Pressure Absolute Pressure Temperature Relative Humidity Dew Point   
(mb) (inHg) (mb) (inHg) (C) (F) (%) (C) (F)
00:05 1016 30 845 24.95 -10.6 12.9 75 -14.3 6.3
00:10 1016 30 845 24.95 -10.9 12.4 75 -14.5 5.8
00:15 1016 30 845 24.95 -11 12.1 76 -14.5 5.9
00:20 1016 30 845 24.95 -11.1 12.1 76 -14.5 5.9
00:25 1016 30 845 24.95 -11.1 12.1 76 -14.5 6
00:30 1016 30 845 24.95 -11 12.2 77 -14.3 6.3
00:35 1016 30 845 24.95 -11 12.3 77 -14.3 6.3
00:40 1016 30 845 24.95 -10.9 12.5 75 -14.4 6.1
00:45 1016 30 845 24.95 -10.7 12.8 76 -14.2 6.5
00:50 1016 30 845 24.95 -10.5 13.1 75 -14.1 6.6
00:55 1016 30 845 24.95 -10.4 13.3 75 -14 6.8
01:00 1016 30 845 24.95 -10.3 13.5 73 -14.2 6.5
01:05 1016 30 845 24.95 -10.3 13.5 73 -14.3 6.3
01:10 1016 30 845 24.95 -10.4 13.2 75 -14.1 6.6
01:15 1016 30 845 24.95 -10.4 13.4 75 -14 6.8
01:20 1016 30 845 24.95 -10.6 13 77 -13.9 7
01:25 1016 30 845 24.95 -10.6 13 77 -13.8 7.2
01:30 1016 30 845 24.95 -10.6 13 79 -13.6 7.6
01:35 1015 29.97 845 24.95 -10.4 13.3 78 -13.5 7.6
01:40 1015 29.97 845 24.95 -10.2 13.6 77 -13.5 7.7
01:45 1015 29.97 845 24.95 -10.2 13.6 78 -13.4 7.9
01:50 1015 29.97 845 24.95 -10.2 13.6 78 -13.4 7.9
01:55 1015 29.97 845 24.95 -10.2 13.6 78 -13.3 8
02:00 1015 29.97 844 24.92 -10.3 13.6 77 -13.5 7.7
02:05 1015 29.97 844 24.92 -10.5 13.2 78 -13.6 7.5
02:10 1015 29.97 844 24.92 -10.5 13.1 79 -13.5 7.7
02:15 1015 29.97 844 24.92 -10.4 13.2 78 -13.5 7.6
02:20 1015 29.97 844 24.92 -10.3 13.4 79 -13.3 8.1
02:25 1015 29.97 844 24.92 -10.1 13.7 77 -13.5 7.7
02:30 1015 29.97 844 24.92 -10.2 13.6 78 -13.4 7.9
02:35 1015 29.97 844 24.92 -10.3 13.6 78 -13.4 7.9
02:40 1015 29.97 844 24.92 -10.2 13.6 78 -13.4 7.9
02:45 1015 29.97 844 24.92 -10.1 13.8 78 -13.3 8.1
02:50 1015 29.97 844 24.92 -10 14 78 -13.1 8.4
02:55 1015 29.97 844 24.92 -9.9 14.2 78 -13.1 8.4
03:00 1015 29.97 844 24.92 -9.7 14.5 77 -13.1 8.5
03:05 1015 29.97 844 24.92 -9.6 14.8 77 -12.9 8.7
03:10 1015 29.97 844 24.92 -9.3 15.2 78 -12.6 9.4
03:15 1015 29.97 844 24.92 -9.1 15.6 77 -12.4 9.7
03:20 1015 29.97 844 24.92 -8.9 15.9 78 -12.2 10.1
03:25 1015 29.97 844 24.92 -8.7 16.3 78 -12 10.4
03:30 1014 29.94 844 24.92 -8.5 16.6 76 -12 10.4
03:35 1014 29.94 844 24.92 -8.5 16.7 77 -11.8 10.8
03:40 1015 29.97 844 24.92 -8.4 16.9 77 -11.8 10.7
03:45 1015 29.97 844 24.92 -7.9 17.8 77 -11.3 11.6
03:50 1015 29.97 844 24.92 -7.4 18.7 75 -11.2 11.9
03:55 1014 29.94 844 24.92 -7.2 19.1 76 -10.7 12.7
04:00 1014 29.94 844 24.92 -7.1 19.3 77 -10.5 13
04:05 1014 29.94 844 24.92 -7.1 19.3 77 -10.4 13.3
04:10 1014 29.94 844 24.92 -7 19.4 78 -10.2 13.6
04:15 1014 29.94 844 24.92 -7.1 19.3 77 -10.4 13.3
04:20 1014 29.94 844 24.92 -6.9 19.5 77 -10.4 13.3
04:25 1014 29.94 843 24.89 -6.7 19.9 76 -10.2 13.6
04:30 1014 29.94 843 24.89 -6.6 20.1 77 -9.9 14.1
04:35 1014 29.94 843 24.89 -6.7 19.9 78 -9.9 14.2
04:40 1014 29.94 843 24.89 -7 19.4 80 -9.9 14.1
04:45 1014 29.94 843 24.89 -7.1 19.3 80 -9.9 14.2
04:50 1014 29.94 843 24.89 -7.1 19.3 80 -9.9 14.2
04:55 1014 29.94 843 24.89 -7.2 19 81 -10 14
05:00 1014 29.94 843 24.89 -7.4 18.7 81 -10.1 13.8
05:05 1014 29.94 843 24.89 -7.4 18.7 81 -10.2 13.7
05:10 1014 29.94 843 24.89 -7.3 18.9 81 -10.1 13.9
05:15 1014 29.94 843 24.89 -7.2 19.1 81 -10 14
05:20 1014 29.94 843 24.89 -6.8 19.8 79 -9.8 14.3
05:25 1014 29.94 843 24.89 -6.6 20.2 80 -9.5 15
05:30 1013 29.91 843 24.89 -5.7 21.7 77 -9.1 15.6
05:35 1013 29.91 843 24.89 -5 23 74 -9 15.8
05:40 1013 29.91 843 24.89 -5 23.1 74 -8.9 15.9
05:45 1013 29.91 843 24.89 -4.8 23.4 75 -8.6 16.5
05:50 1013 29.91 842 24.86 -4.8 23.4 75 -8.6 16.6
05:55 1013 29.91 842 24.86 -4.7 23.6 73 -8.8 16.1
06:00 1013 29.91 842 24.86 -4.5 23.8 72 -8.9 16.1
06:05 1013 29.91 842 24.86 -4.4 24.1 72 -8.7 16.3
06:10 1013 29.91 843 24.89 -4.3 24.3 72 -8.6 16.6
06:15 1013 29.91 843 24.89 -4.3 24.2 73 -8.5 16.8
06:20 1013 29.91 843 24.89 -4.6 23.8 74 -8.5 16.6
06:25 1013 29.91 843 24.89 -4.6 23.6 74 -8.6 16.5
06:30 1013 29.91 843 24.89 -4.7 23.5 74 -8.7 16.4
06:35 1013 29.91 843 24.89 -4.8 23.4 74 -8.7 16.4
06:40 1013 29.91 843 24.89 -4.7 23.5 74 -8.7 16.3
06:45 1013 29.91 843 24.89 -4.7 23.5 74 -8.6 16.6
06:50 1013 29.91 843 24.89 -4.7 23.5 75 -8.5 16.7
06:55 1013 29.91 843 24.89 -4.7 23.5 76 -8.4 16.9
07:00 1014 29.94 843 24.89 -4.8 23.3 76 -8.4 16.8
07:05 1014 29.94 843 24.89 -5 23 76 -8.5 16.7
07:10 1014 29.94 843 24.89 -5 22.9 77 -8.5 16.7
07:15 1013 29.91 843 24.89 -5.1 22.8 77 -8.5 16.7
07:20 1014 29.94 843 24.89 -4.9 23.2 76 -8.5 16.8
07:25 1014 29.94 843 24.89 -5 22.9 77 -8.4 16.8
07:30 1014 29.94 843 24.89 -4.9 23.1 77 -8.3 17.1
07:35 1014 29.94 843 24.89 -4.8 23.4 78 -8.1 17.5
07:40 1014 29.94 843 24.89 -5 23.1 79 -8.1 17.5
07:45 1014 29.94 843 24.89 -4.9 23.2 79 -8 17.5
07:50 1014 29.94 843 24.89 -4.8 23.3 79 -7.9 17.7
07:55 1014 29.94 843 24.89 -4.7 23.5 79 -7.8 18
08:00 1014 29.94 843 24.89 -4.5 24 78 -7.8 17.9
08:05 1014 29.94 843 24.89 -4.2 24.4 76 -7.9 17.9
08:10 1014 29.94 843 24.89 -4 24.9 74 -7.9 17.7
08:15 1014 29.94 843 24.89 -3.7 25.4 73 -7.9 17.7
08:20 1014 29.94 843 24.89 -3.6 25.5 76 -7.2 19.1
08:25 1014 29.94 843 24.89 -3.9 25 77 -7.3 18.9
08:30 1014 29.94 843 24.89 -3.7 25.3 74 -7.7 18.1
08:35 1014 29.94 843 24.89 -3 26.6 71 -7.6 18.3
08:40 1014 29.94 843 24.89 -2.5 27.5 68 -7.7 18.2
08:45 1014 29.94 843 24.89 -2.2 28.1 67 -7.6 18.4
08:50 1014 29.94 843 24.89 -1.9 28.6 65 -7.6 18.4
08:55 1014 29.94 843 24.89 -1.6 29 64 -7.5 18.5
09:00 1014 29.94 843 24.89 -1.4 29.4 63 -7.6 18.3
09:05 1014 29.94 843 24.89 -1.3 29.7 63 -7.4 18.7
09:10 1014 29.94 843 24.89 -1.3 29.7 63 -7.4 18.7
09:15 1014 29.94 843 24.89 -1.3 29.7 64 -7.2 19
09:20 1014 29.94 843 24.89 -1.4 29.5 68 -6.7 20
09:25 1014 29.94 843 24.89 -2 28.4 69 -6.9 19.6
09:30 1014 29.94 843 24.89 -2.1 28.2 70 -6.8 19.8
09:35 1014 29.94 843 24.89 -2 28.4 74 -6.1 21
09:40 1014 29.94 843 24.89 -1.6 29.1 76 -5.4 22.4
09:45 1014 29.94 843 24.89 -1.3 29.6 76 -5 23.1
09:50 1014 29.94 843 24.89 -1.3 29.6 78 -4.7 23.5
09:55 1014 29.94 843 24.89 -1.4 29.4 77 -4.9 23.1
10:00 1014 29.94 843 24.89 -1.8 28.8 80 -4.8 23.3
10:05 1014 29.94 843 24.89 -2 28.4 81 -4.8 23.3
10:10 1014 29.94 843 24.89 -2.2 28 83 -4.8 23.4
10:15 1014 29.94 843 24.89 -2.3 27.8 84 -4.7 23.5
10:20 1014 29.94 843 24.89 -2.3 27.8 84 -4.7 23.6
10:25 1014 29.94 843 24.89 -2.3 27.9 85 -4.5 23.8
10:30 1014 29.94 843 24.89 -2.3 27.9 85 -4.4 24.1
10:35 1014 29.94 843 24.89 -2.3 27.9 86 -4.3 24.3
10:40 1014 29.94 843 24.89 -2.1 28.2 85 -4.3 24.3
10:45 1014 29.94 843 24.89 -1.7 28.9 84 -4.1 24.6
10:50 1014 29.94 843 24.89 -1.5 29.3 82 -4.1 24.6
10:55 1014 29.94 843 24.89 -1.2 29.8 81 -4.1 24.6
11:00 1014 29.94 843 24.89 -1.2 29.9 81 -4 24.7
11:05 1014 29.94 843 24.89 -1.4 29.4 83 -4 24.9
11:10 1014 29.94 843 24.89 -1.7 28.9 84 -4.1 24.5
11:15 1014 29.94 843 24.89 -1.9 28.6 85 -4.1 24.5
11:20 1014 29.94 843 24.89 -1.9 28.5 85 -4.2 24.5
11:25 1014 29.94 843 24.89 -1.7 28.9 84 -4.1 24.6
11:30 1014 29.94 843 24.89 -1.5 29.2 82 -4.2 24.4
11:35 1014 29.94 843 24.89 -1.2 29.9 80 -4.1 24.5
11:40 1014 29.94 843 24.89 -1.1 30 81 -4 24.8
11:45 1014 29.94 843 24.89 -0.9 30.3 79 -4.1 24.7
11:50 1014 29.94 843 24.89 -0.7 30.7 78 -4.1 24.6
11:55 1014 29.94 843 24.89 -0.3 31.5 76 -4.1 24.7
12:00 1014 29.94 843 24.89 0.1 32.1 74 -4 24.7
12:05 1014 29.94 843 24.89 0.1 32.1 74 -4.1 24.7
12:10 1014 29.94 843 24.89 -0.2 31.6 73 -4.5 23.9
12:15 1014 29.94 843 24.89 -0.4 31.2 75 -4.2 24.4
12:20 1014 29.94 843 24.89 -0.5 31.2 76 -4.3 24.3
12:25 1014 29.94 843 24.89 -0.4 31.4 73 -4.6 23.7
12:30 1014 29.94 843 24.89 -0 31.9 73 -4.3 24.3
12:35 1014 29.94 843 24.89 0.1 32.2 72 -4.3 24.2
12:40 1014 29.94 843 24.89 0.6 33 70 -4.3 24.2
12:45 1014 29.94 843 24.89 0.7 33.3 68 -4.5 23.9
12:50 1014 29.94 843 24.89 0.9 33.6 68 -4.4 24
12:55 1014 29.94 843 24.89 0.9 33.7 68 -4.3 24.2
13:00 1014 29.94 843 24.89 1.1 33.9 67 -4.3 24.2
13:05 1014 29.94 843 24.89 1.3 34.3 66 -4.4 24.1
13:10 1014 29.94 843 24.89 1.3 34.3 67 -4.2 24.4
13:15 1014 29.94 843 24.89 1.3 34.3 67 -4.2 24.5
13:20 1014 29.94 843 24.89 1.2 34.1 68 -4.1 24.7
13:25 1014 29.94 843 24.89 1.1 34 69 -4 24.8
13:30 1014 29.94 843 24.89 1 33.8 68 -4.2 24.4
13:35 1014 29.94 843 24.89 0.9 33.7 68 -4.3 24.2
13:40 1014 29.94 843 24.89 0.9 33.6 69 -4.2 24.4
13:45 1014 29.94 843 24.89 1.1 34 68 -4.2 24.4
13:50 1014 29.94 843 24.89 1 33.9 68 -4.2 24.4
13:55 1014 29.94 843 24.89 0.9 33.7 69 -4.2 24.5
14:00 1014 29.94 843 24.89 1 33.9 67 -4.4 24.2
14:05 1014 29.94 843 24.89 1.2 34.1 68 -4.2 24.5
14:10 1014 29.94 843 24.89 1.3 34.3 66 -4.3 24.2
14:15 1014 29.94 843 24.89 1.4 34.5 66 -4.4 24.1
14:20 1014 29.94 843 24.89 1.4 34.5 65 -4.5 23.9
14:25 1014 29.94 843 24.89 1.5 34.6 66 -4.3 24.3
14:30 1014 29.94 843 24.89 1.7 35 65 -4.3 24.3
14:35 1014 29.94 843 24.89 1.7 35 65 -4.3 24.3
14:40 1014 29.94 843 24.89 1.8 35.3 64 -4.2 24.5
14:45 1014 29.94 843 24.89 1.9 35.4 65 -4.1 24.7
14:50 1014 29.94 843 24.89 2 35.5 63 -4.3 24.3
14:55 1014 29.94 843 24.89 2.2 36 63 -4.1 24.7
15:00 1014 29.94 843 24.89 2.4 36.4 63 -4 24.8
15:05 1014 29.94 843 24.89 2.4 36.3 63 -3.9 25
15:10 1014 29.94 843 24.89 2.4 36.3 63 -4 24.8
15:15 1014 29.94 843 24.89 2.4 36.3 64 -3.8 25.2
15:20 1014 29.94 843 24.89 2.4 36.2 64 -3.8 25.2
15:25 1014 29.94 843 24.89 2.2 36 64 -3.8 25.2
15:30 1014 29.94 843 24.89 2.2 35.9 67 -3.3 26.1
15:35 1014 29.94 843 24.89 1.9 35.4 68 -3.3 26.1
15:40 1014 29.94 843 24.89 1.7 35 70 -3.2 26.2
15:45 1014 29.94 843 24.89 1.6 34.8 73 -2.8 27
15:50 1014 29.94 844 24.92 1.3 34.4 71 -3.3 26
15:55 1014 29.94 844 24.92 1.4 34.5 68 -3.8 25.2
16:00 1014 29.94 844 24.92 1.6 34.9 67 -3.9 25
16:05 1014 29.94 844 24.92 1.8 35.2 66 -3.9 24.9
16:10 1015 29.97 844 24.92 1.9 35.4 67 -3.6 25.6
16:15 1015 29.97 844 24.92 1.9 35.3 66 -3.8 25.1
16:20 1015 29.97 844 24.92 1.8 35.3 65 -4.1 24.6
16:25 1015 29.97 844 24.92 1.8 35.2 65 -4.1 24.6
16:30 1015 29.97 844 24.92 1.7 35 66 -4 24.9
16:35 1015 29.97 844 24.92 1.6 34.9 67 -3.9 24.9
16:40 1015 29.97 844 24.92 1.6 34.8 67 -4 24.9
16:45 1015 29.97 844 24.92 1.6 34.9 66 -4 24.7
16:50 1015 29.97 844 24.92 1.6 35 65 -4.3 24.3
16:55 1015 29.97 844 24.92 1.7 35 64 -4.4 24.2
17:00 1015 29.97 844 24.92 1.7 35 65 -4.2 24.5
17:05 1015 29.97 844 24.92 1.6 34.9 66 -4 24.8
17:10 1015 29.97 844 24.92 1.6 34.9 66 -4 24.8
17:15 1015 29.97 844 24.92 1.5 34.6 69 -3.7 25.4
17:20 1015 29.97 844 24.92 1.3 34.3 70 -3.6 25.6
17:25 1015 29.97 844 24.92 1.1 34 71 -3.6 25.6
17:30 1015 29.97 844 24.92 1.1 34 71 -3.6 25.6
17:35 1015 29.97 844 24.92 0.9 33.6 73 -3.5 25.7
17:40 1015 29.97 844 24.92 0.7 33.2 73 -3.6 25.5
17:45 1015 29.97 844 24.92 0.7 33.2 74 -3.4 25.8
17:50 1015 29.97 844 24.92 0.6 33.1 73 -3.7 25.4
17:55 1015 29.97 844 24.92 0.7 33.3 72 -3.7 25.3
18:00 1015 29.97 844 24.92 0.7 33.3 72 -3.7 25.4
18:05 1015 29.97 844 24.92 0.9 33.7 68 -4.2 24.4
18:10 1015 29.97 844 24.92 1.2 34.2 68 -4 24.9
18:15 1015 29.97 844 24.92 1.2 34.2 69 -3.9 24.9
18:20 1015 29.97 844 24.92 1.2 34.2 69 -3.9 25
18:25 1015 29.97 844 24.92 1.2 34.2 69 -3.8 25.2
18:30 1015 29.97 844 24.92 1.2 34.2 70 -3.7 25.4
18:35 1015 29.97 844 24.92 1.2 34.2 70 -3.7 25.4
18:40 1015 29.97 844 24.92 1.1 33.9 73 -3.2 26.3
18:45 1015 29.97 844 24.92 0.8 33.5 76 -3 26.6
18:50 1015 29.97 844 24.92 0.6 33.2 78 -2.7 27.1
18:55 1015 29.97 844 24.92 0.4 32.8 81 -2.5 27.5
19:00 1015 29.97 844 24.92 0.2 32.4 84 -2.2 28
19:05 1015 29.97 844 24.92 0.1 32.1 86 -2 28.4
19:10 1015 29.97 845 24.95 -0.1 31.8 88 -1.9 28.6
19:15 1015 29.97 845 24.95 -0.2 31.6 89 -1.8 28.7
19:20 1016 30 845 24.95 -0.4 31.4 91 -1.7 28.9
19:25 1016 30 845 24.95 -0.4 31.2 91 -1.7 29
19:30 1016 30 845 24.95 -0.5 31 92 -1.6 29.1
19:35 1016 30 845 24.95 -0.6 30.9 94 -1.5 29.3
19:40 1016 30 845 24.95 -0.7 30.8 94 -1.5 29.2
19:45 1016 30 845 24.95 -0.7 30.7 94 -1.6 29.2
19:50 1016 30 845 24.95 -0.8 30.6 95 -1.5 29.2
19:55 1016 30 845 24.95 -0.8 30.5 94 -1.6 29.1
20:00 1016 30 845 24.95 -0.9 30.5 95 -1.6 29.1
20:05 1016 30 845 24.95 -0.8 30.5 95 -1.6 29.2
20:10 1016 30 845 24.95 -0.8 30.5 95 -1.5 29.2
20:15 1016 30 845 24.95 -0.8 30.5 95 -1.5 29.2
20:20 1016 30 845 24.95 -0.9 30.5 95 -1.5 29.2
20:25 1016 30 845 24.95 -0.9 30.5 95 -1.5 29.2
20:30 1016 30 845 24.95 -0.8 30.5 95 -1.5 29.3
20:35 1016 30 845 24.95 -0.9 30.4 95 -1.5 29.2
20:40 1016 30 845 24.95 -0.9 30.4 95 -1.5 29.2
20:45 1016 30 845 24.95 -0.9 30.4 96 -1.5 29.2
20:50 1016 30 845 24.95 -0.9 30.4 96 -1.5 29.3
20:55 1016 30 845 24.95 -0.9 30.4 96 -1.5 29.3
21:00 1016 30 845 24.95 -0.9 30.4 96 -1.5 29.3
21:05 1016 30 845 24.95 -0.9 30.3 96 -1.6 29.2
21:10 1016 30 845 24.95 -1 30.3 96 -1.6 29.2
21:15 1016 30 845 24.95 -1 30.2 96 -1.6 29.2
21:20 1016 30 845 24.95 -1 30.1 96 -1.6 29.1
21:25 1016 30 845 24.95 -1.1 30.1 96 -1.6 29.1
21:30 1016 30 845 24.95 -1.1 30 96 -1.6 29.1
21:35 1016 30 845 24.95 -1.1 30 96 -1.6 29.1
21:40 1016 30 846 24.98 -1.1 29.9 96 -1.6 29
21:45 1016 30 846 24.98 -1.1 30 97 -1.6 29.1
21:50 1017 30.03 846 24.98 -1.1 29.9 96 -1.6 29
21:55 1017 30.03 846 24.98 -1.2 29.9 97 -1.6 29
22:00 1017 30.03 846 24.98 -1.2 29.8 97 -1.7 28.9
22:05 1017 30.03 846 24.98 -1.3 29.7 97 -1.7 28.9
22:10 1016 30 846 24.98 -1.2 29.8 97 -1.7 28.9
22:15 1017 30.03 846 24.98 -1.2 29.8 96 -1.7 28.9
22:20 1017 30.03 846 24.98 -1.2 29.8 96 -1.7 28.9
22:25 1017 30.03 846 24.98 -1.2 29.8 96 -1.8 28.8
22:30 1016 30 846 24.98 -1.2 29.9 96 -1.8 28.8
22:35 1016 30 846 24.98 -1.1 30 95 -1.9 28.7
22:40 1016 30 846 24.98 -1.1 30.1 94 -1.9 28.6
22:45 1016 30 845 24.95 -1 30.2 93 -2 28.3
22:50 1016 30 846 24.98 -0.8 30.5 87 -2.7 27.1
22:55 1016 30 846 24.98 -0.5 31.1 88 -2.3 27.9
23:00 1016 30 846 24.98 -0.6 30.9 87 -2.6 27.4
23:05 1016 30 846 24.98 -0.6 31 86 -2.7 27.2
23:10 1017 30.03 846 24.98 -0.5 31.1 84 -2.9 26.7
23:15 1017 30.03 846 24.98 -0.3 31.4 81 -3.3 26.1
23:20 1017 30.03 846 24.98 -0.1 31.8 80 -3.2 26.2
23:25 1017 30.03 846 24.98 -0 31.9 78 -3.5 25.7
23:30 1017 30.03 846 24.98 -0 32 78 -3.3 26
23:35 1017 30.03 846 24.98 -0 31.9 75 -4 24.8
23:40 1017 30.03 846 24.98 0.3 32.5 72 -4.1 24.6
23:45 1017 30.03 846 24.98 0.5 32.8 72 -4 24.9
23:50 1017 30.03 846 24.98 0.4 32.8 71 -4.2 24.4
23:55 1017 30.03 846 24.98 0.5 32.9 71 -4.3 24.3
24:00 1017 30.03 846 24.98 0.6 33 70 -4.3 24.2